createdAt,value
2023-02-05T00:00:26.990Z,12.05
2023-02-05T00:02:53.716Z,10.57
2023-02-05T00:05:20.465Z,8.68
2023-02-05T00:07:47.171Z,8.07
2023-02-05T00:10:13.982Z,9.75
2023-02-05T00:12:40.748Z,8.23
2023-02-05T00:15:07.935Z,8.88
2023-02-05T00:17:36.327Z,8.50
2023-02-05T00:20:04.685Z,9.00
2023-02-05T00:22:31.632Z,8.30
2023-02-05T00:24:58.410Z,9.93
2023-02-05T00:27:25.190Z,7.80
2023-02-05T00:29:51.937Z,9.27
2023-02-05T00:32:18.654Z,12.88
2023-02-05T00:34:45.382Z,9.55
2023-02-05T00:37:12.097Z,11.00
2023-02-05T00:39:38.950Z,7.32
2023-02-05T00:42:05.663Z,8.77
2023-02-05T00:44:32.425Z,10.02
2023-02-05T00:46:59.124Z,9.45
2023-02-05T00:49:25.998Z,9.23
2023-02-05T00:51:52.847Z,9.50
2023-02-05T00:54:19.659Z,8.20
2023-02-05T00:56:46.349Z,9.00
2023-02-05T00:59:16.234Z,9.40
2023-02-05T01:01:42.982Z,7.45
2023-02-05T01:04:09.690Z,11.88
2023-02-05T01:06:36.450Z,7.15
2023-02-05T01:09:03.292Z,7.18
2023-02-05T01:11:30.281Z,8.50
2023-02-05T01:13:56.976Z,7.28
2023-02-05T01:16:23.696Z,9.27
2023-02-05T01:18:50.765Z,8.18
2023-02-05T01:21:17.506Z,12.02
2023-02-05T01:23:44.327Z,8.82
2023-02-05T01:26:11.016Z,9.43
2023-02-05T01:28:37.734Z,10.77
2023-02-05T01:31:04.620Z,7.80
2023-02-05T01:33:31.353Z,10.55
2023-02-05T01:35:58.147Z,10.30
2023-02-05T01:38:24.851Z,10.95
2023-02-05T01:40:51.765Z,11.10
2023-02-05T01:43:19.258Z,10.90
2023-02-05T01:45:57.978Z,10.90
2023-02-05T01:48:32.497Z,17.35
2023-02-05T01:51:06.236Z,20.25
2023-02-05T01:53:35.396Z,10.10
2023-02-05T01:56:09.898Z,12.32
2023-02-05T01:58:42.286Z,12.07
2023-02-05T02:01:09.090Z,11.07
2023-02-05T02:03:35.888Z,13.07
2023-02-05T02:06:04.742Z,11.63
2023-02-05T02:08:32.896Z,12.40
2023-02-05T02:11:01.975Z,17.00
2023-02-05T02:13:31.217Z,13.57
2023-02-05T02:15:58.705Z,13.18
2023-02-05T02:18:26.948Z,13.10
2023-02-05T02:21:18.695Z,14.95
2023-02-05T02:24:20.540Z,15.82
2023-02-05T02:27:05.453Z,14.52
2023-02-05T02:29:47.141Z,15.18
2023-02-05T02:32:23.497Z,18.08
2023-02-05T02:35:01.157Z,25.15
2023-02-05T02:37:40.166Z,25.52
2023-02-05T02:40:33.495Z,19.10
2023-02-05T02:43:17.594Z,23.17
2023-02-05T02:45:51.528Z,22.23
2023-02-05T02:48:22.172Z,17.80
2023-02-05T02:50:52.436Z,19.52
2023-02-05T02:53:27.268Z,22.10
2023-02-05T02:55:57.061Z,18.42
2023-02-05T02:58:28.721Z,17.23
2023-02-05T03:00:56.993Z,21.05
2023-02-05T03:03:26.195Z,16.73
2023-02-05T03:05:55.961Z,15.07
2023-02-05T03:08:31.693Z,16.98
2023-02-05T03:11:06.710Z,19.17
2023-02-05T03:13:34.128Z,16.63
2023-02-05T03:16:01.176Z,18.38
2023-02-05T03:18:29.321Z,18.25
2023-02-05T03:20:58.728Z,15.38
2023-02-05T03:23:27.960Z,18.30
2023-02-05T03:25:54.736Z,11.50
2023-02-05T03:28:21.773Z,13.02
2023-02-05T03:31:00.229Z,10.98
2023-02-05T03:33:51.718Z,15.48
2023-02-05T03:36:46.670Z,9.52
2023-02-05T03:39:25.083Z,10.70
2023-02-05T03:42:34.114Z,9.10
2023-02-05T03:45:00.770Z,9.65
2023-02-05T03:47:58.896Z,11.95
2023-02-05T03:50:53.721Z,10.75
2023-02-05T03:53:27.854Z,12.70
2023-02-05T03:56:05.579Z,10.20
2023-02-05T03:58:38.710Z,9.35
2023-02-05T04:01:07.549Z,8.73
2023-02-05T04:03:34.397Z,9.25
2023-02-05T04:06:01.104Z,13.02
2023-02-05T04:08:27.839Z,9.05
2023-02-05T04:10:54.543Z,8.55
2023-02-05T04:13:21.285Z,8.75
2023-02-05T04:15:51.640Z,9.07
2023-02-05T04:18:18.873Z,9.77
2023-02-05T04:20:45.646Z,7.63
2023-02-05T04:23:12.488Z,8.27
2023-02-05T04:25:39.954Z,8.55
2023-02-05T04:28:09.422Z,7.72
2023-02-05T04:30:36.360Z,8.80
2023-02-05T04:33:03.206Z,10.13
2023-02-05T04:35:29.888Z,10.30
2023-02-05T04:37:56.609Z,9.38
2023-02-05T04:40:23.345Z,9.38
2023-02-05T04:42:50.103Z,6.00
2023-02-05T04:45:16.788Z,11.70
2023-02-05T04:47:43.508Z,8.73
2023-02-05T04:50:10.390Z,6.93
2023-02-05T04:52:37.118Z,6.95
2023-02-05T04:55:04.030Z,7.25
2023-02-05T04:57:31.631Z,9.10
2023-02-05T04:59:58.314Z,6.00
2023-02-05T05:02:25.145Z,6.25
2023-02-05T05:04:51.942Z,6.55
2023-02-05T05:07:18.666Z,7.25
2023-02-05T05:09:45.406Z,8.93
2023-02-05T05:12:12.152Z,7.28
2023-02-05T05:14:38.914Z,6.68
2023-02-05T05:17:05.743Z,7.30
2023-02-05T05:19:32.712Z,6.55
2023-02-05T05:22:00.071Z,7.40
2023-02-05T05:24:26.780Z,7.75
2023-02-05T05:26:53.518Z,7.22
2023-02-05T05:29:20.252Z,7.15
2023-02-05T05:31:47.009Z,8.00
2023-02-05T05:34:14.062Z,6.28
2023-02-05T05:36:43.630Z,7.80
2023-02-05T05:39:28.958Z,6.28
2023-02-05T05:42:14.428Z,6.00
2023-02-05T05:44:41.159Z,7.03
2023-02-05T05:47:07.906Z,6.20
2023-02-05T05:49:34.644Z,6.28
2023-02-05T05:52:01.386Z,6.65
2023-02-05T05:54:28.137Z,8.05
2023-02-05T05:56:54.866Z,9.80
2023-02-05T05:59:21.607Z,6.93
2023-02-05T06:01:48.382Z,6.38
2023-02-05T06:04:15.134Z,6.55
2023-02-05T06:06:42.549Z,7.20
2023-02-05T06:09:09.416Z,7.45
2023-02-05T06:11:36.171Z,9.20
2023-02-05T06:14:03.014Z,7.75
2023-02-05T06:16:29.762Z,8.00
2023-02-05T06:18:57.182Z,7.68
2023-02-05T06:21:23.915Z,6.25
2023-02-05T06:23:50.758Z,11.85
2023-02-05T06:26:17.462Z,7.28
2023-02-05T06:28:44.221Z,8.02
2023-02-05T06:31:11.021Z,5.97
2023-02-05T06:33:37.825Z,8.45
2023-02-05T06:36:04.955Z,9.02
2023-02-05T06:38:31.699Z,8.00
2023-02-05T06:40:58.442Z,8.57
2023-02-05T06:43:25.259Z,6.95
2023-02-05T06:45:52.015Z,10.20
2023-02-05T06:48:18.738Z,9.85
2023-02-05T06:50:46.016Z,10.45
2023-02-05T06:53:12.776Z,11.02
2023-02-05T06:55:39.673Z,11.02
2023-02-05T06:58:07.729Z,10.65
2023-02-05T07:00:35.386Z,9.95
2023-02-05T07:03:02.144Z,12.60
2023-02-05T07:05:28.997Z,10.98
2023-02-05T07:07:55.761Z,11.18
2023-02-05T07:10:22.554Z,10.50
2023-02-05T07:12:49.261Z,20.20
2023-02-05T07:15:16.026Z,31.08
2023-02-05T07:17:42.778Z,21.92
2023-02-05T07:20:10.096Z,16.58
2023-02-05T07:22:36.885Z,13.68
2023-02-05T07:25:04.726Z,13.90
2023-02-05T07:27:31.652Z,11.85
2023-02-05T07:29:58.454Z,10.50
2023-02-05T07:32:25.219Z,9.00
2023-02-05T07:34:52.020Z,8.48
2023-02-05T07:37:21.114Z,8.18
2023-02-05T07:39:48.151Z,6.78
2023-02-05T07:42:14.836Z,7.15
2023-02-05T07:44:41.581Z,8.00
2023-02-05T07:47:08.268Z,8.60
2023-02-05T07:49:35.999Z,7.63
2023-02-05T07:52:02.801Z,9.10
2023-02-05T07:54:29.567Z,11.88
2023-02-05T07:56:56.368Z,11.07
2023-02-05T07:59:23.153Z,9.45
2023-02-05T08:01:49.876Z,8.38
2023-02-05T08:04:16.649Z,8.40
2023-02-05T08:06:43.728Z,9.88
2023-02-05T08:09:11.374Z,9.52
2023-02-05T08:11:38.276Z,8.07
2023-02-05T08:14:05.060Z,7.57
2023-02-05T08:16:31.771Z,7.82
2023-02-05T08:18:58.582Z,7.75
2023-02-05T08:21:25.348Z,8.40
2023-02-05T08:23:52.153Z,8.75
2023-02-05T08:26:19.165Z,10.52
2023-02-05T08:28:46.162Z,7.57
2023-02-05T08:31:15.353Z,8.45
2023-02-05T08:33:42.265Z,7.70
2023-02-05T08:36:09.820Z,7.40
2023-02-05T08:38:36.935Z,7.15
2023-02-05T08:41:12.482Z,6.97
2023-02-05T08:43:47.697Z,7.82
2023-02-05T08:46:19.229Z,6.78
2023-02-05T08:48:46.931Z,8.50
2023-02-05T08:51:15.139Z,8.43
2023-02-05T08:53:42.362Z,9.25
2023-02-05T08:56:10.746Z,8.48
2023-02-05T08:58:39.150Z,9.73
2023-02-05T09:01:12.015Z,10.57
2023-02-05T09:03:38.976Z,10.38
2023-02-05T09:06:08.441Z,9.98
2023-02-05T09:08:36.006Z,13.07
2023-02-05T09:11:02.813Z,12.88
2023-02-05T09:13:29.509Z,13.20
2023-02-05T09:15:56.259Z,11.40
2023-02-05T09:18:23.012Z,11.85
2023-02-05T09:20:50.641Z,12.00
2023-02-05T09:23:18.697Z,10.18
2023-02-05T09:25:45.608Z,15.57
2023-02-05T09:28:14.150Z,14.18
2023-02-05T09:30:44.263Z,11.90
2023-02-05T09:33:12.259Z,12.25
2023-02-05T09:35:39.259Z,13.35
2023-02-05T09:38:06.351Z,13.07
2023-02-05T09:40:39.515Z,10.40
2023-02-05T09:43:38.795Z,12.60
2023-02-05T09:46:22.768Z,13.32
2023-02-05T09:49:10.936Z,12.50
2023-02-05T09:51:48.068Z,14.60
2023-02-05T09:54:27.120Z,14.45
2023-02-05T09:56:57.863Z,10.73
2023-02-05T09:59:27.434Z,12.52
2023-02-05T10:01:58.432Z,15.43
2023-02-05T10:04:27.391Z,13.35
2023-02-05T10:07:19.086Z,13.15
2023-02-05T10:09:58.624Z,12.75
2023-02-05T10:12:53.693Z,12.80
2023-02-05T10:15:59.307Z,15.02
2023-02-05T10:19:07.369Z,10.43
2023-02-05T10:22:15.315Z,13.90
2023-02-05T10:24:59.032Z,14.18
2023-02-05T10:27:38.637Z,14.55
2023-02-05T10:30:10.947Z,13.80
2023-02-05T10:32:47.289Z,13.30
2023-02-05T10:35:39.015Z,12.75
2023-02-05T10:38:22.956Z,19.58
2023-02-05T10:40:53.227Z,17.55
2023-02-05T10:43:43.717Z,14.57
2023-02-05T10:46:15.530Z,11.60
2023-02-05T10:48:54.585Z,13.32
2023-02-05T10:51:50.717Z,11.43
2023-02-05T10:54:26.380Z,13.48
2023-02-05T10:56:53.319Z,12.57
2023-02-05T10:59:27.890Z,11.00
2023-02-05T11:01:57.051Z,12.02
2023-02-05T11:04:48.278Z,12.25
2023-02-05T11:07:28.248Z,15.43
2023-02-05T11:09:55.110Z,12.38
2023-02-05T11:12:32.568Z,12.93
2023-02-05T11:15:02.097Z,12.98
2023-02-05T11:17:35.887Z,15.25
2023-02-05T11:20:35.856Z,14.10
2023-02-05T11:23:19.457Z,16.27
2023-02-05T11:26:01.012Z,14.95
2023-02-05T11:28:36.081Z,14.38
2023-02-05T11:31:34.757Z,14.60
2023-02-05T11:34:07.644Z,12.77
2023-02-05T11:36:39.377Z,12.02
2023-02-05T11:39:07.688Z,16.05
2023-02-05T11:41:48.819Z,12.57
2023-02-05T11:44:32.254Z,12.48
2023-02-05T11:47:01.253Z,13.95
2023-02-05T11:49:37.847Z,13.52
2023-02-05T11:52:13.813Z,11.80
2023-02-05T11:54:46.075Z,11.32
2023-02-05T11:57:19.800Z,11.38
2023-02-05T12:00:20.602Z,11.75
2023-02-05T12:02:53.919Z,19.63
2023-02-05T12:05:31.279Z,12.73
2023-02-05T12:08:16.202Z,14.13
2023-02-05T12:11:17.391Z,11.88
2023-02-05T12:13:59.297Z,12.10
2023-02-05T12:16:53.587Z,16.88
2023-02-05T12:19:30.945Z,12.13
2023-02-05T12:22:06.911Z,13.90
2023-02-05T12:24:47.492Z,11.85
2023-02-05T12:27:32.238Z,16.70
2023-02-05T12:30:32.112Z,14.75
2023-02-05T12:33:38.748Z,12.25
2023-02-05T12:36:20.428Z,13.80
2023-02-05T12:39:30.909Z,13.07
2023-02-05T12:42:18.840Z,16.35
2023-02-05T12:45:30.419Z,13.00
2023-02-05T12:48:27.480Z,14.80
2023-02-05T12:51:03.400Z,15.48
2023-02-05T12:53:39.884Z,15.93
2023-02-05T12:56:25.064Z,18.67
2023-02-05T12:59:06.942Z,17.65
2023-02-05T13:01:39.155Z,14.80
2023-02-05T13:04:07.574Z,17.33
2023-02-05T13:06:47.164Z,14.93
2023-02-05T13:09:23.919Z,16.17
2023-02-05T13:11:56.436Z,12.55
2023-02-05T13:14:28.202Z,15.27
2023-02-05T13:17:01.092Z,15.48
2023-02-05T13:19:43.816Z,13.88
2023-02-05T13:22:50.416Z,15.38
2023-02-05T13:25:59.054Z,16.98
2023-02-05T13:28:41.723Z,20.05
2023-02-05T13:31:17.357Z,17.38
2023-02-05T13:33:44.854Z,20.98
2023-02-05T13:36:20.334Z,22.58
2023-02-05T13:39:05.036Z,24.13
2023-02-05T13:41:37.934Z,23.90
2023-02-05T13:44:26.782Z,23.58
2023-02-05T13:47:22.686Z,17.80
2023-02-05T13:50:14.037Z,19.90
2023-02-05T13:52:53.686Z,17.85
2023-02-05T13:55:20.720Z,17.05
2023-02-05T13:58:05.684Z,23.13
2023-02-05T14:00:33.670Z,19.85
2023-02-05T14:03:05.710Z,15.45
2023-02-05T14:05:36.095Z,15.15
2023-02-05T14:08:04.088Z,15.32
2023-02-05T14:10:35.256Z,14.75
2023-02-05T14:13:26.139Z,18.25
2023-02-05T14:15:57.531Z,15.02
2023-02-05T14:18:45.194Z,15.75
2023-02-05T14:21:30.368Z,11.15
2023-02-05T14:24:21.710Z,16.88
2023-02-05T14:26:57.658Z,12.65
2023-02-05T14:29:48.081Z,17.60
2023-02-05T14:32:30.107Z,11.38
2023-02-05T14:35:19.569Z,15.80
2023-02-05T14:37:49.771Z,17.65
2023-02-05T14:40:27.306Z,12.13
2023-02-05T14:43:09.873Z,15.48
2023-02-05T14:45:47.585Z,14.10
2023-02-05T14:48:28.924Z,17.38
2023-02-05T14:51:07.851Z,13.73
2023-02-05T14:53:37.371Z,16.88
2023-02-05T14:56:05.489Z,11.15
2023-02-05T14:58:39.775Z,15.25
2023-02-05T15:01:28.452Z,17.98
2023-02-05T15:03:57.292Z,21.45
2023-02-05T15:06:27.425Z,14.98
2023-02-05T15:09:13.553Z,16.50
2023-02-05T15:12:01.591Z,22.00
2023-02-05T15:14:43.829Z,18.25
2023-02-05T15:17:10.744Z,17.83
2023-02-05T15:19:44.441Z,15.05
2023-02-05T15:22:23.362Z,20.55
2023-02-05T15:24:53.605Z,16.98
2023-02-05T15:27:28.773Z,20.90
2023-02-05T15:29:57.423Z,21.58
2023-02-05T15:32:29.714Z,18.38
2023-02-05T15:35:17.881Z,19.33
2023-02-05T15:38:00.103Z,22.17
2023-02-05T15:40:30.580Z,13.18
2023-02-05T15:43:17.775Z,22.05
2023-02-05T15:45:45.745Z,20.27
2023-02-05T15:48:13.624Z,14.05
2023-02-05T15:51:00.222Z,13.68
2023-02-05T15:53:35.800Z,15.68
2023-02-05T15:56:29.546Z,20.40
2023-02-05T15:59:03.928Z,18.40
2023-02-05T16:01:36.781Z,36.70
2023-02-05T16:04:26.932Z,35.40
2023-02-05T16:06:53.740Z,27.25
2023-02-05T16:09:24.213Z,26.15
2023-02-05T16:11:51.682Z,24.00
2023-02-05T16:14:21.377Z,21.15
2023-02-05T16:17:19.340Z,25.73
2023-02-05T16:19:51.739Z,23.95
2023-02-05T16:22:42.630Z,20.95
2023-02-05T16:25:32.552Z,30.60
2023-02-05T16:28:02.673Z,23.80
2023-02-05T16:30:42.949Z,21.45
2023-02-05T16:33:39.498Z,24.55
2023-02-05T16:36:13.436Z,21.42
2023-02-05T16:38:40.260Z,16.10
2023-02-05T16:41:29.400Z,37.97
2023-02-05T16:43:59.874Z,20.27
2023-02-05T16:46:28.907Z,17.80
2023-02-05T16:49:01.015Z,27.42
2023-02-05T16:51:56.980Z,16.02
2023-02-05T16:54:35.050Z,23.95
2023-02-05T16:57:15.345Z,24.50
2023-02-05T16:59:56.018Z,27.58
2023-02-05T17:02:32.051Z,27.15
2023-02-05T17:05:01.464Z,24.77
2023-02-05T17:07:30.008Z,31.05
2023-02-05T17:10:29.132Z,25.65
2023-02-05T17:13:05.153Z,27.33
2023-02-05T17:15:36.022Z,27.58
2023-02-05T17:18:27.742Z,18.50
2023-02-05T17:21:27.630Z,18.85
2023-02-05T17:23:57.128Z,20.15
2023-02-05T17:26:24.900Z,18.63
2023-02-05T17:28:57.059Z,21.88
2023-02-05T17:31:26.413Z,20.52
2023-02-05T17:33:55.369Z,22.92
2023-02-05T17:36:22.284Z,22.27
2023-02-05T17:38:50.102Z,20.30
2023-02-05T17:41:37.781Z,22.23
2023-02-05T17:44:05.135Z,16.67
2023-02-05T17:46:32.164Z,20.95
2023-02-05T17:48:58.972Z,23.05
2023-02-05T17:51:26.866Z,23.52
2023-02-05T17:53:53.786Z,20.70
2023-02-05T17:56:21.474Z,25.23
2023-02-05T17:58:49.847Z,25.65
2023-02-05T18:01:16.972Z,25.55
2023-02-05T18:03:44.286Z,24.35
2023-02-05T18:06:14.068Z,32.00
2023-02-05T18:08:42.160Z,26.55
2023-02-05T18:11:10.085Z,23.17
2023-02-05T18:13:37.193Z,22.98
2023-02-05T18:16:04.128Z,19.67
2023-02-05T18:18:31.995Z,19.98
2023-02-05T18:20:59.162Z,27.08
2023-02-05T18:23:29.420Z,25.92
2023-02-05T18:25:59.845Z,25.48
2023-02-05T18:28:27.312Z,28.45
2023-02-05T18:31:00.099Z,23.48
2023-02-05T18:33:27.409Z,30.63
2023-02-05T18:35:54.824Z,25.30
2023-02-05T18:38:21.902Z,21.33
2023-02-05T18:40:49.025Z,25.70
2023-02-05T18:43:15.769Z,24.23
2023-02-05T18:45:42.532Z,23.73
2023-02-05T18:48:09.256Z,25.10
2023-02-05T18:50:36.341Z,19.80
2023-02-05T18:53:03.580Z,21.60
2023-02-05T18:55:35.058Z,28.83
2023-02-05T18:58:02.977Z,20.30
2023-02-05T19:00:29.804Z,21.77
2023-02-05T19:02:57.471Z,23.25
2023-02-05T19:05:24.382Z,21.77
2023-02-05T19:07:51.134Z,40.10
2023-02-05T19:10:18.431Z,24.17
2023-02-05T19:12:45.124Z,24.17
2023-02-05T19:15:11.827Z,23.27
2023-02-05T19:17:38.498Z,28.15
2023-02-05T19:20:06.044Z,27.30
2023-02-05T19:22:32.780Z,27.00
2023-02-05T19:24:59.530Z,26.88
2023-02-05T19:27:26.237Z,18.70
2023-02-05T19:29:53.017Z,28.15
2023-02-05T19:32:19.849Z,29.05
2023-02-05T19:34:46.670Z,29.48
2023-02-05T19:37:13.490Z,26.27
2023-02-05T19:39:40.262Z,31.00
2023-02-05T19:42:07.218Z,31.02
2023-02-05T19:44:34.002Z,28.63
2023-02-05T19:47:00.741Z,28.40
2023-02-05T19:49:27.652Z,29.20
2023-02-05T19:51:56.288Z,25.15
2023-02-05T19:54:23.429Z,25.55
2023-02-05T19:56:50.503Z,26.60
2023-02-05T19:59:17.512Z,28.63
2023-02-05T20:01:45.250Z,27.13
2023-02-05T20:04:18.074Z,21.58
2023-02-05T20:06:46.764Z,33.22
2023-02-05T20:09:15.359Z,30.60
2023-02-05T20:11:43.794Z,24.58
2023-02-05T20:14:11.295Z,31.38
2023-02-05T20:16:42.456Z,26.65
2023-02-05T20:19:11.482Z,32.47
2023-02-05T20:21:38.597Z,28.80
2023-02-05T20:24:07.433Z,32.40
2023-02-05T20:26:35.505Z,32.10
2023-02-05T20:29:21.094Z,31.00
2023-02-05T20:31:51.147Z,39.03
2023-02-05T20:34:22.280Z,34.08
2023-02-05T20:36:57.681Z,35.85
2023-02-05T20:39:28.746Z,35.92
2023-02-05T20:41:57.925Z,42.75
2023-02-05T20:44:30.229Z,34.03
2023-02-05T20:46:57.059Z,40.30
2023-02-05T20:49:24.028Z,82.60
2023-02-05T20:51:52.946Z,46.30
2023-02-05T20:54:20.269Z,44.25
2023-02-05T20:56:49.500Z,44.83
2023-02-05T20:59:16.236Z,36.78
2023-02-05T21:01:42.977Z,41.65
2023-02-05T21:04:10.159Z,39.88
2023-02-05T21:06:38.773Z,45.38
2023-02-05T21:09:06.576Z,42.92
2023-02-05T21:11:33.821Z,41.42
2023-02-05T21:14:00.672Z,42.63
2023-02-05T21:16:27.864Z,40.17
2023-02-05T21:18:55.249Z,40.58
2023-02-05T21:21:25.331Z,41.08
2023-02-05T21:23:56.154Z,36.15
2023-02-05T21:26:26.220Z,44.42
2023-02-05T21:29:14.231Z,38.65
2023-02-05T21:31:46.473Z,40.05
2023-02-05T21:34:16.194Z,38.17
2023-02-05T21:36:43.214Z,40.67
2023-02-05T21:39:12.206Z,50.95
2023-02-05T21:41:39.592Z,40.90
2023-02-05T21:44:06.406Z,51.40
2023-02-05T21:46:33.413Z,48.33
2023-02-05T21:49:01.182Z,47.05
2023-02-05T21:51:30.294Z,45.17
2023-02-05T21:54:01.909Z,39.50
2023-02-05T21:56:35.384Z,37.42
2023-02-05T21:59:02.359Z,40.92
2023-02-05T22:01:31.937Z,39.85
2023-02-05T22:04:16.517Z,39.70
2023-02-05T22:06:44.194Z,37.28
2023-02-05T22:09:14.843Z,36.80
2023-02-05T22:11:42.390Z,37.45
2023-02-05T22:14:10.618Z,40.83
2023-02-05T22:16:37.771Z,44.28
2023-02-05T22:19:05.487Z,45.85
2023-02-05T22:21:35.100Z,31.30
2023-02-05T22:24:03.406Z,35.40
2023-02-05T22:26:37.916Z,37.92
2023-02-05T22:29:06.428Z,41.33
2023-02-05T22:31:33.850Z,36.28
2023-02-05T22:34:00.947Z,31.00
2023-02-05T22:36:29.980Z,33.08
2023-02-05T22:38:57.112Z,29.75
2023-02-05T22:41:29.560Z,34.42
2023-02-05T22:43:58.127Z,31.80
2023-02-05T22:46:27.497Z,31.95
2023-02-05T22:48:55.423Z,32.70
2023-02-05T22:51:24.649Z,33.33
2023-02-05T22:53:55.628Z,28.10
2023-02-05T22:56:22.827Z,31.95
2023-02-05T22:58:51.098Z,33.85
2023-02-05T23:01:21.776Z,30.73
2023-02-05T23:03:50.751Z,37.80
2023-02-05T23:06:33.291Z,35.72
2023-02-05T23:09:02.736Z,30.42
2023-02-05T23:11:31.438Z,30.48
2023-02-05T23:13:59.741Z,29.15
2023-02-05T23:16:29.947Z,31.05
2023-02-05T23:18:59.771Z,36.25
2023-02-05T23:21:28.511Z,31.80
2023-02-05T23:23:55.958Z,30.13
2023-02-05T23:26:25.015Z,28.95
2023-02-05T23:28:53.246Z,37.58
2023-02-05T23:31:21.086Z,34.17
2023-02-05T23:33:47.913Z,27.90
2023-02-05T23:36:14.891Z,26.77
2023-02-05T23:38:41.758Z,30.40
2023-02-05T23:41:09.100Z,40.25
2023-02-05T23:43:37.126Z,36.55
2023-02-05T23:46:05.618Z,30.15
2023-02-05T23:48:32.699Z,32.22
2023-02-05T23:50:59.960Z,32.05
2023-02-05T23:53:26.759Z,26.52
2023-02-05T23:55:54.080Z,26.23
2023-02-05T23:58:25.992Z,32.17
